Armstrong Creek, Wisconsin
Current Conditions -  °F | °C
As of 9:54 AM on Saturday 20 Dec 2014 (Local Time) from KIMT Reporting Station
Overcast Overcast  
Wind Chill: 21°   Ceiling: 2600
Heat Index: 21°   Visibility: 7mi
Dew Point: 19°   Wind: 0mph
Humidity: 92%   Direction: NA
Pressure: 30.22"   Gusts: NA
Location:  45.66°N, 88.45°W
Report Text: KIMT 201554Z AUTO 00000KT 7SM OVC026 M06/M07 A3022 RMK AO2 SLP258 T10611072
Loading
Personal Weather Stations






























Interactive Weather Map New forecast layout! Learn more

10-Day Weather Forecast

Advertisements
Track Severe Weather on mobile